sensor_id;sensor_type;location;lat;lon;timestamp;pressure;altitude;pressure_sealevel;temperature;humidity
75759;BME280;64371;47.566;19.086;2023-09-12T00:02:28;100205.94;;;18.41;85.56
75759;BME280;64371;47.566;19.086;2023-09-12T00:05:31;100196.38;;;18.40;87.55
75759;BME280;64371;47.566;19.086;2023-09-12T00:08:33;100203.94;;;18.38;88.96
75759;BME280;64371;47.566;19.086;2023-09-12T00:11:36;100202.59;;;18.32;90.69
75759;BME280;64371;47.566;19.086;2023-09-12T00:14:39;100200.94;;;18.28;92.32
75759;BME280;64371;47.566;19.086;2023-09-12T00:17:41;100202.38;;;18.25;92.69
75759;BME280;64371;47.566;19.086;2023-09-12T00:20:45;100205.41;;;18.24;92.77
75759;BME280;64371;47.566;19.086;2023-09-12T00:23:47;100211.25;;;18.17;92.85
75759;BME280;64371;47.566;19.086;2023-09-12T00:26:50;100198.91;;;18.13;93.02
75759;BME280;64371;47.566;19.086;2023-09-12T00:29:53;100195.59;;;18.16;92.89
75759;BME280;64371;47.566;19.086;2023-09-12T00:32:56;100200.38;;;18.10;93.32
75759;BME280;64371;47.566;19.086;2023-09-12T00:36:00;100210.66;;;18.00;92.73
75759;BME280;64371;47.566;19.086;2023-09-12T00:39:04;100209.13;;;17.99;92.67
75759;BME280;64371;47.566;19.086;2023-09-12T00:42:06;100205.03;;;18.01;91.70
75759;BME280;64371;47.566;19.086;2023-09-12T00:45:09;100203.00;;;17.98;91.78
75759;BME280;64371;47.566;19.086;2023-09-12T00:48:12;100204.22;;;17.88;92.35
75759;BME280;64371;47.566;19.086;2023-09-12T00:51:16;100196.13;;;17.85;91.80
75759;BME280;64371;47.566;19.086;2023-09-12T00:54:20;100198.84;;;17.76;91.92
75759;BME280;64371;47.566;19.086;2023-09-12T00:57:23;100202.75;;;17.79;92.27
75759;BME280;64371;47.566;19.086;2023-09-12T01:00:26;100208.09;;;17.79;92.16
75759;BME280;64371;47.566;19.086;2023-09-12T01:03:31;100198.50;;;17.78;91.74
75759;BME280;64371;47.566;19.086;2023-09-12T01:06:34;100194.63;;;17.75;90.87
75759;BME280;64371;47.566;19.086;2023-09-12T01:09:39;100200.88;;;17.79;90.90
75759;BME280;64371;47.566;19.086;2023-09-12T01:12:44;100202.41;;;17.80;90.43
75759;BME280;64371;47.566;19.086;2023-09-12T01:15:46;100205.19;;;17.72;89.96
75759;BME280;64371;47.566;19.086;2023-09-12T01:18:49;100201.16;;;17.66;90.77
75759;BME280;64371;47.566;19.086;2023-09-12T01:25:45;100201.03;;;17.62;90.43
75759;BME280;64371;47.566;19.086;2023-09-12T01:28:57;100201.38;;;17.61;90.74
75759;BME280;64371;47.566;19.086;2023-09-12T01:32:01;100198.13;;;17.55;91.01
75759;BME280;64371;47.566;19.086;2023-09-12T01:35:05;100195.34;;;17.52;91.60
75759;BME280;64371;47.566;19.086;2023-09-12T01:38:07;100206.00;;;17.52;91.82
75759;BME280;64371;47.566;19.086;2023-09-12T01:41:10;100201.63;;;17.47;92.10
75759;BME280;64371;47.566;19.086;2023-09-12T01:44:14;100199.84;;;17.51;91.44
75759;BME280;64371;47.566;19.086;2023-09-12T01:47:18;100202.84;;;17.50;90.79
75759;BME280;64371;47.566;19.086;2023-09-12T01:50:22;100200.34;;;17.53;89.80
75759;BME280;64371;47.566;19.086;2023-09-12T01:53:29;100200.66;;;17.52;89.29
75759;BME280;64371;47.566;19.086;2023-09-12T01:56:32;100202.41;;;17.48;89.15
75759;BME280;64371;47.566;19.086;2023-09-12T01:59:35;100202.47;;;17.39;88.38
75759;BME280;64371;47.566;19.086;2023-09-12T02:02:39;100198.91;;;17.35;88.79
75759;BME280;64371;47.566;19.086;2023-09-12T02:05:41;100201.81;;;17.42;88.58
75759;BME280;64371;47.566;19.086;2023-09-12T02:08:45;100205.34;;;17.55;88.29
75759;BME280;64371;47.566;19.086;2023-09-12T02:11:48;100205.53;;;17.50;88.53
75759;BME280;64371;47.566;19.086;2023-09-12T02:14:51;100209.44;;;17.52;89.89
75759;BME280;64371;47.566;19.086;2023-09-12T02:17:53;100221.00;;;17.36;91.34
75759;BME280;64371;47.566;19.086;2023-09-12T02:20:58;100220.13;;;17.32;92.18
75759;BME280;64371;47.566;19.086;2023-09-12T02:24:01;100214.06;;;17.22;93.84
75759;BME280;64371;47.566;19.086;2023-09-12T02:27:04;100209.91;;;17.13;96.05
75759;BME280;64371;47.566;19.086;2023-09-12T02:30:07;100214.19;;;17.05;96.48
75759;BME280;64371;47.566;19.086;2023-09-12T02:33:10;100214.38;;;17.00;97.12
75759;BME280;64371;47.566;19.086;2023-09-12T02:36:13;100213.47;;;16.96;97.86
75759;BME280;64371;47.566;19.086;2023-09-12T02:39:16;100209.56;;;16.94;97.99
75759;BME280;64371;47.566;19.086;2023-09-12T02:42:18;100207.69;;;16.94;97.77
75759;BME280;64371;47.566;19.086;2023-09-12T02:45:21;100205.81;;;16.95;96.86
75759;BME280;64371;47.566;19.086;2023-09-12T02:48:23;100211.59;;;16.97;96.12
75759;BME280;64371;47.566;19.086;2023-09-12T02:51:25;100211.94;;;16.95;95.55
75759;BME280;64371;47.566;19.086;2023-09-12T02:54:28;100214.59;;;16.95;96.01
75759;BME280;64371;47.566;19.086;2023-09-12T02:57:32;100206.66;;;16.87;96.93
75759;BME280;64371;47.566;19.086;2023-09-12T03:00:38;100214.19;;;16.85;97.56
75759;BME280;64371;47.566;19.086;2023-09-12T03:03:42;100207.97;;;16.81;97.96
75759;BME280;64371;47.566;19.086;2023-09-12T03:06:44;100220.16;;;16.82;97.36
75759;BME280;64371;47.566;19.086;2023-09-12T03:09:48;100209.69;;;16.77;97.59
75759;BME280;64371;47.566;19.086;2023-09-12T03:12:51;100213.19;;;16.69;97.76
75759;BME280;64371;47.566;19.086;2023-09-12T03:15:54;100214.28;;;16.68;98.39
75759;BME280;64371;47.566;19.086;2023-09-12T03:18:56;100211.97;;;16.66;98.71
75759;BME280;64371;47.566;19.086;2023-09-12T03:21:59;100210.84;;;16.67;98.46
75759;BME280;64371;47.566;19.086;2023-09-12T03:25:01;100216.50;;;16.66;98.18
75759;BME280;64371;47.566;19.086;2023-09-12T03:28:05;100208.81;;;16.64;98.55
75759;BME280;64371;47.566;19.086;2023-09-12T03:31:10;100214.75;;;16.70;97.74
75759;BME280;64371;47.566;19.086;2023-09-12T03:34:17;100221.81;;;16.66;97.85
75759;BME280;64371;47.566;19.086;2023-09-12T03:37:19;100220.13;;;16.61;97.87
75759;BME280;64371;47.566;19.086;2023-09-12T03:40:24;100222.13;;;16.64;97.63
75759;BME280;64371;47.566;19.086;2023-09-12T03:43:28;100228.56;;;16.63;97.12
75759;BME280;64371;47.566;19.086;2023-09-12T03:46:30;100232.97;;;16.59;97.00
75759;BME280;64371;47.566;19.086;2023-09-12T03:49:34;100231.75;;;16.56;96.92
75759;BME280;64371;47.566;19.086;2023-09-12T03:52:36;100233.28;;;16.57;97.03
75759;BME280;64371;47.566;19.086;2023-09-12T03:55:39;100228.13;;;16.52;96.11
75759;BME280;64371;47.566;19.086;2023-09-12T03:58:42;100227.66;;;16.50;96.35
75759;BME280;64371;47.566;19.086;2023-09-12T04:01:45;100225.31;;;16.49;96.50
75759;BME280;64371;47.566;19.086;2023-09-12T04:04:47;100228.75;;;16.49;95.95
75759;BME280;64371;47.566;19.086;2023-09-12T04:07:50;100226.91;;;16.41;96.55
75759;BME280;64371;47.566;19.086;2023-09-12T04:10:52;100230.22;;;16.38;96.75
75759;BME280;64371;47.566;19.086;2023-09-12T04:13:55;100233.59;;;16.47;96.20
75759;BME280;64371;47.566;19.086;2023-09-12T04:16:57;100226.75;;;16.38;96.63
75759;BME280;64371;47.566;19.086;2023-09-12T04:20:01;100234.28;;;16.36;96.92
75759;BME280;64371;47.566;19.086;2023-09-12T04:23:03;100228.63;;;16.37;96.24
75759;BME280;64371;47.566;19.086;2023-09-12T04:26:07;100239.09;;;16.42;95.59
75759;BME280;64371;47.566;19.086;2023-09-12T04:29:10;100240.84;;;16.47;95.55
75759;BME280;64371;47.566;19.086;2023-09-12T04:32:13;100237.06;;;16.56;95.11
75759;BME280;64371;47.566;19.086;2023-09-12T04:35:15;100240.47;;;16.57;94.63
75759;BME280;64371;47.566;19.086;2023-09-12T04:38:18;100240.19;;;16.58;94.96
75759;BME280;64371;47.566;19.086;2023-09-12T04:41:22;100231.06;;;16.59;94.94
75759;BME280;64371;47.566;19.086;2023-09-12T04:44:26;100251.38;;;16.73;94.48
75759;BME280;64371;47.566;19.086;2023-09-12T04:47:30;100251.50;;;16.76;93.59
75759;BME280;64371;47.566;19.086;2023-09-12T04:50:33;100254.63;;;16.78;93.58
75759;BME280;64371;47.566;19.086;2023-09-12T04:53:35;100256.97;;;16.80;93.69
75759;BME280;64371;47.566;19.086;2023-09-12T04:56:39;100256.19;;;16.79;93.93
75759;BME280;64371;47.566;19.086;2023-09-12T04:59:43;100262.09;;;16.85;93.61
75759;BME280;64371;47.566;19.086;2023-09-12T05:02:48;100259.38;;;16.93;93.00
75759;BME280;64371;47.566;19.086;2023-09-12T05:05:51;100257.59;;;17.06;92.00
75759;BME280;64371;47.566;19.086;2023-09-12T05:08:57;100261.63;;;17.12;91.57
75759;BME280;64371;47.566;19.086;2023-09-12T05:12:04;100268.97;;;17.36;90.63
75759;BME280;64371;47.566;19.086;2023-09-12T05:15:07;100264.38;;;17.65;89.15
75759;BME280;64371;47.566;19.086;2023-09-12T05:18:10;100258.31;;;17.77;87.96
75759;BME280;64371;47.566;19.086;2023-09-12T05:21:13;100265.75;;;17.83;88.04
75759;BME280;64371;47.566;19.086;2023-09-12T05:24:15;100261.06;;;18.13;86.60
75759;BME280;64371;47.566;19.086;2023-09-12T05:27:18;100265.06;;;18.19;86.34
75759;BME280;64371;47.566;19.086;2023-09-12T05:30:20;100268.03;;;18.63;84.42
75759;BME280;64371;47.566;19.086;2023-09-12T05:33:23;100270.69;;;19.11;81.41
75759;BME280;64371;47.566;19.086;2023-09-12T05:36:25;100280.09;;;19.45;79.02
75759;BME280;64371;47.566;19.086;2023-09-12T05:39:29;100287.38;;;19.60;77.89
75759;BME280;64371;47.566;19.086;2023-09-12T05:42:31;100287.16;;;19.01;80.00
75759;BME280;64371;47.566;19.086;2023-09-12T05:45:34;100287.09;;;19.49;78.65
75759;BME280;64371;47.566;19.086;2023-09-12T05:48:37;100291.41;;;19.54;77.08
75759;BME280;64371;47.566;19.086;2023-09-12T05:51:41;100290.34;;;19.70;76.37
75759;BME280;64371;47.566;19.086;2023-09-12T05:54:45;100291.03;;;19.67;76.35
75759;BME280;64371;47.566;19.086;2023-09-12T05:57:50;100283.78;;;20.11;74.65
75759;BME280;64371;47.566;19.086;2023-09-12T06:00:55;100285.94;;;20.49;72.26
75759;BME280;64371;47.566;19.086;2023-09-12T06:03:59;100294.53;;;20.89;69.51
75759;BME280;64371;47.566;19.086;2023-09-12T06:07:02;100289.84;;;21.56;65.87
75759;BME280;64371;47.566;19.086;2023-09-12T06:10:05;100287.13;;;22.13;63.47
75759;BME280;64371;47.566;19.086;2023-09-12T06:13:09;100293.69;;;22.16;61.94
75759;BME280;64371;47.566;19.086;2023-09-12T06:16:14;100294.59;;;22.23;61.70
75759;BME280;64371;47.566;19.086;2023-09-12T06:19:17;100298.19;;;21.89;63.07
75759;BME280;64371;47.566;19.086;2023-09-12T06:22:22;100300.44;;;22.06;61.04
75759;BME280;64371;47.566;19.086;2023-09-12T06:25:25;100302.75;;;22.53;59.77
75759;BME280;64371;47.566;19.086;2023-09-12T06:28:29;100300.56;;;22.81;59.24
75759;BME280;64371;47.566;19.086;2023-09-12T06:31:32;100305.81;;;23.00;58.56
75759;BME280;64371;47.566;19.086;2023-09-12T06:34:35;100301.28;;;22.78;58.19
75759;BME280;64371;47.566;19.086;2023-09-12T06:37:39;100309.47;;;22.40;59.41
75759;BME280;64371;47.566;19.086;2023-09-12T06:40:45;100306.47;;;22.45;59.46
75759;BME280;64371;47.566;19.086;2023-09-12T06:43:51;100308.25;;;22.60;58.73
75759;BME280;64371;47.566;19.086;2023-09-12T06:46:55;100305.94;;;22.59;59.74
75759;BME280;64371;47.566;19.086;2023-09-12T06:49:58;100298.25;;;23.36;57.01
75759;BME280;64371;47.566;19.086;2023-09-12T06:53:04;100297.44;;;23.05;58.24
75759;BME280;64371;47.566;19.086;2023-09-12T06:56:10;100300.63;;;23.74;56.93
75759;BME280;64371;47.566;19.086;2023-09-12T06:59:14;100302.34;;;24.26;55.77
75759;BME280;64371;47.566;19.086;2023-09-12T07:02:17;100304.66;;;24.27;54.86
75759;BME280;64371;47.566;19.086;2023-09-12T07:05:22;100311.94;;;24.71;53.44
75759;BME280;64371;47.566;19.086;2023-09-12T07:08:25;100311.59;;;24.72;53.01
75759;BME280;64371;47.566;19.086;2023-09-12T07:11:30;100308.97;;;24.79;52.88
75759;BME280;64371;47.566;19.086;2023-09-12T07:14:32;100311.09;;;25.11;52.91
75759;BME280;64371;47.566;19.086;2023-09-12T07:17:34;100316.06;;;25.01;51.93
75759;BME280;64371;47.566;19.086;2023-09-12T07:20:37;100315.53;;;24.82;52.48
75759;BME280;64371;47.566;19.086;2023-09-12T07:23:42;100313.69;;;25.61;50.86
75759;BME280;64371;47.566;19.086;2023-09-12T07:26:45;100318.78;;;25.95;49.49
75759;BME280;64371;47.566;19.086;2023-09-12T07:29:49;100315.03;;;26.59;48.11
75759;BME280;64371;47.566;19.086;2023-09-12T07:32:51;100319.63;;;26.69;47.39
75759;BME280;64371;47.566;19.086;2023-09-12T07:35:54;100317.31;;;26.96;47.11
75759;BME280;64371;47.566;19.086;2023-09-12T07:38:57;100315.41;;;26.89;47.02
75759;BME280;64371;47.566;19.086;2023-09-12T07:42:00;100318.91;;;26.55;48.80
75759;BME280;64371;47.566;19.086;2023-09-12T07:45:03;100316.56;;;26.64;46.81
75759;BME280;64371;47.566;19.086;2023-09-12T07:48:06;100314.22;;;26.30;48.33
75759;BME280;64371;47.566;19.086;2023-09-12T07:51:16;100314.25;;;26.55;47.47
75759;BME280;64371;47.566;19.086;2023-09-12T07:54:20;100316.16;;;26.86;47.55
75759;BME280;64371;47.566;19.086;2023-09-12T07:57:23;100314.16;;;27.26;45.99
75759;BME280;64371;47.566;19.086;2023-09-12T08:00:25;100308.34;;;27.41;46.15
75759;BME280;64371;47.566;19.086;2023-09-12T08:03:28;100311.34;;;27.57;45.64
75759;BME280;64371;47.566;19.086;2023-09-12T08:06:40;100310.06;;;27.83;45.09
75759;BME280;64371;47.566;19.086;2023-09-12T08:09:58;100306.00;;;27.43;45.63
75759;BME280;64371;47.566;19.086;2023-09-12T08:13:02;100299.22;;;27.87;45.00
75759;BME280;64371;47.566;19.086;2023-09-12T08:16:07;100301.56;;;28.40;43.41
75759;BME280;64371;47.566;19.086;2023-09-12T08:19:10;100301.88;;;28.49;43.39
75759;BME280;64371;47.566;19.086;2023-09-12T08:22:17;100308.94;;;28.39;43.88
75759;BME280;64371;47.566;19.086;2023-09-12T08:25:21;100306.63;;;27.76;44.62
75759;BME280;64371;47.566;19.086;2023-09-12T08:28:23;100300.19;;;28.21;43.39
75759;BME280;64371;47.566;19.086;2023-09-12T08:31:28;100308.63;;;28.30;43.64
75759;BME280;64371;47.566;19.086;2023-09-12T08:34:31;100310.84;;;28.46;43.29
75759;BME280;64371;47.566;19.086;2023-09-12T08:37:34;100311.09;;;29.03;42.35
75759;BME280;64371;47.566;19.086;2023-09-12T08:40:37;100312.56;;;29.11;41.54
75759;BME280;64371;47.566;19.086;2023-09-12T08:43:40;100310.53;;;29.18;41.71
75759;BME280;64371;47.566;19.086;2023-09-12T08:46:44;100310.81;;;28.93;41.96
75759;BME280;64371;47.566;19.086;2023-09-12T08:49:46;100305.66;;;28.58;41.85
75759;BME280;64371;47.566;19.086;2023-09-12T08:52:49;100311.94;;;28.96;41.26
75759;BME280;64371;47.566;19.086;2023-09-12T08:56:09;100305.94;;;29.12;41.20
75759;BME280;64371;47.566;19.086;2023-09-12T08:59:12;100302.53;;;29.72;40.09
75759;BME280;64371;47.566;19.086;2023-09-12T09:02:15;100305.59;;;29.74;39.50
75759;BME280;64371;47.566;19.086;2023-09-12T09:05:20;100300.56;;;29.72;38.74
75759;BME280;64371;47.566;19.086;2023-09-12T09:08:25;100297.94;;;30.22;38.79
75759;BME280;64371;47.566;19.086;2023-09-12T09:11:28;100293.50;;;30.32;37.87
75759;BME280;64371;47.566;19.086;2023-09-12T09:14:33;100295.97;;;30.49;36.86
75759;BME280;64371;47.566;19.086;2023-09-12T09:17:36;100288.00;;;30.35;35.61
75759;BME280;64371;47.566;19.086;2023-09-12T09:20:44;100288.94;;;30.52;36.16
75759;BME280;64371;47.566;19.086;2023-09-12T09:23:54;100287.75;;;30.72;35.78
75759;BME280;64371;47.566;19.086;2023-09-12T09:26:58;100285.81;;;30.03;36.73
75759;BME280;64371;47.566;19.086;2023-09-12T09:30:04;100286.44;;;29.84;36.76
75759;BME280;64371;47.566;19.086;2023-09-12T09:33:07;100286.69;;;30.47;35.76
75759;BME280;64371;47.566;19.086;2023-09-12T09:36:09;100277.09;;;30.81;35.41
75759;BME280;64371;47.566;19.086;2023-09-12T09:39:13;100281.59;;;30.92;34.32
75759;BME280;64371;47.566;19.086;2023-09-12T09:42:16;100288.97;;;31.14;34.77
75759;BME280;64371;47.566;19.086;2023-09-12T09:45:18;100289.56;;;31.41;32.94
75759;BME280;64371;47.566;19.086;2023-09-12T09:48:25;100294.06;;;31.32;33.35
75759;BME280;64371;47.566;19.086;2023-09-12T09:51:32;100284.00;;;30.43;33.89
75759;BME280;64371;47.566;19.086;2023-09-12T09:54:34;100287.94;;;30.42;34.21
75759;BME280;64371;47.566;19.086;2023-09-12T09:57:37;100277.56;;;31.00;34.17
75759;BME280;64371;47.566;19.086;2023-09-12T10:00:40;100275.38;;;30.91;33.57
75759;BME280;64371;47.566;19.086;2023-09-12T10:03:45;100273.03;;;30.93;33.89
75759;BME280;64371;47.566;19.086;2023-09-12T10:06:49;100271.66;;;30.81;32.55
75759;BME280;64371;47.566;19.086;2023-09-12T10:09:52;100269.59;;;31.09;32.16
75759;BME280;64371;47.566;19.086;2023-09-12T10:12:59;100264.44;;;31.34;30.25
75759;BME280;64371;47.566;19.086;2023-09-12T10:16:02;100274.28;;;31.28;30.65
75759;BME280;64371;47.566;19.086;2023-09-12T10:19:20;100271.56;;;31.08;31.17
75759;BME280;64371;47.566;19.086;2023-09-12T10:22:32;100268.19;;;31.40;31.31
75759;BME280;64371;47.566;19.086;2023-09-12T10:25:38;100264.16;;;31.48;30.93
75759;BME280;64371;47.566;19.086;2023-09-12T10:28:44;100266.09;;;31.47;29.48
75759;BME280;64371;47.566;19.086;2023-09-12T10:31:48;100259.34;;;31.72;30.54
75759;BME280;64371;47.566;19.086;2023-09-12T10:34:51;100258.28;;;31.30;28.97
75759;BME280;64371;47.566;19.086;2023-09-12T10:38:01;100255.44;;;31.73;29.82
75759;BME280;64371;47.566;19.086;2023-09-12T10:41:08;100262.25;;;31.97;29.05
75759;BME280;64371;47.566;19.086;2023-09-12T10:44:16;100256.44;;;31.79;28.54
75759;BME280;64371;47.566;19.086;2023-09-12T10:47:19;100252.72;;;31.89;28.68
75759;BME280;64371;47.566;19.086;2023-09-12T10:50:21;100249.09;;;32.11;28.83
75759;BME280;64371;47.566;19.086;2023-09-12T10:53:26;100249.41;;;31.97;29.52
75759;BME280;64371;47.566;19.086;2023-09-12T10:56:30;100250.41;;;31.87;29.36
75759;BME280;64371;47.566;19.086;2023-09-12T10:59:34;100243.22;;;31.61;30.15
75759;BME280;64371;47.566;19.086;2023-09-12T11:02:41;100252.78;;;31.14;31.03
75759;BME280;64371;47.566;19.086;2023-09-12T11:05:51;100245.44;;;30.91;31.07
75759;BME280;64371;47.566;19.086;2023-09-12T11:12:34;100237.97;;;30.95;31.66
75759;BME280;64371;47.566;19.086;2023-09-12T11:16:14;100230.34;;;30.86;30.78
75759;BME280;64371;47.566;19.086;2023-09-12T11:19:21;100228.44;;;30.83;31.76
75759;BME280;64371;47.566;19.086;2023-09-12T11:22:30;100228.03;;;30.85;31.36
75759;BME280;64371;47.566;19.086;2023-09-12T11:25:37;100225.63;;;30.91;32.03
75759;BME280;64371;47.566;19.086;2023-09-12T11:28:39;100221.72;;;30.92;31.86
75759;BME280;64371;47.566;19.086;2023-09-12T11:31:55;100215.78;;;30.97;32.51
75759;BME280;64371;47.566;19.086;2023-09-12T11:35:07;100218.41;;;30.80;32.19
75759;BME280;64371;47.566;19.086;2023-09-12T11:38:10;100217.47;;;30.91;32.11
75759;BME280;64371;47.566;19.086;2023-09-12T11:41:13;100213.94;;;30.70;31.70
75759;BME280;64371;47.566;19.086;2023-09-12T11:44:16;100207.25;;;30.95;32.50
75759;BME280;64371;47.566;19.086;2023-09-12T11:47:19;100211.72;;;31.24;31.27
75759;BME280;64371;47.566;19.086;2023-09-12T11:50:35;100205.16;;;31.22;30.71
75759;BME280;64371;47.566;19.086;2023-09-12T11:53:40;100202.09;;;31.20;31.24
75759;BME280;64371;47.566;19.086;2023-09-12T11:56:44;100205.22;;;31.34;31.92
75759;BME280;64371;47.566;19.086;2023-09-12T11:59:48;100197.69;;;31.42;30.57
75759;BME280;64371;47.566;19.086;2023-09-12T12:02:51;100193.56;;;30.98;30.45
75759;BME280;64371;47.566;19.086;2023-09-12T12:05:55;100201.94;;;30.88;31.73
75759;BME280;64371;47.566;19.086;2023-09-12T12:08:58;100192.97;;;30.91;31.59
75759;BME280;64371;47.566;19.086;2023-09-12T12:12:19;100192.56;;;30.88;30.61
75759;BME280;64371;47.566;19.086;2023-09-12T12:15:21;100191.72;;;30.72;31.24
75759;BME280;64371;47.566;19.086;2023-09-12T12:18:24;100183.72;;;31.04;30.96
75759;BME280;64371;47.566;19.086;2023-09-12T12:21:27;100181.34;;;30.86;31.36
75759;BME280;64371;47.566;19.086;2023-09-12T12:24:46;100179.34;;;30.91;30.76
75759;BME280;64371;47.566;19.086;2023-09-12T12:27:49;100179.03;;;30.85;30.53
75759;BME280;64371;47.566;19.086;2023-09-12T12:30:52;100181.84;;;31.01;30.07
75759;BME280;64371;47.566;19.086;2023-09-12T12:33:58;100174.13;;;31.16;29.99
75759;BME280;64371;47.566;19.086;2023-09-12T12:37:30;100171.66;;;30.85;29.99
75759;BME280;64371;47.566;19.086;2023-09-12T12:40:39;100164.59;;;31.08;30.31
75759;BME280;64371;47.566;19.086;2023-09-12T12:43:50;100154.84;;;31.26;30.72
75759;BME280;64371;47.566;19.086;2023-09-12T12:46:56;100162.84;;;31.33;30.25
75759;BME280;64371;47.566;19.086;2023-09-12T12:50:00;100151.97;;;30.98;30.41
75759;BME280;64371;47.566;19.086;2023-09-12T12:53:03;100153.97;;;30.94;31.06
75759;BME280;64371;47.566;19.086;2023-09-12T12:56:05;100149.88;;;31.05;30.55
75759;BME280;64371;47.566;19.086;2023-09-12T12:59:08;100155.38;;;31.02;30.88
75759;BME280;64371;47.566;19.086;2023-09-12T13:02:11;100141.69;;;30.85;30.81
75759;BME280;64371;47.566;19.086;2023-09-12T13:05:27;100141.25;;;30.91;30.15
75759;BME280;64371;47.566;19.086;2023-09-12T13:08:29;100139.94;;;31.15;30.51
75759;BME280;64371;47.566;19.086;2023-09-12T13:11:32;100135.59;;;31.17;30.22
75759;BME280;64371;47.566;19.086;2023-09-12T13:14:39;100147.34;;;31.30;29.71
75759;BME280;64371;47.566;19.086;2023-09-12T13:17:42;100139.94;;;31.15;29.56
75759;BME280;64371;47.566;19.086;2023-09-12T13:20:44;100141.16;;;30.94;30.64
75759;BME280;64371;47.566;19.086;2023-09-12T13:23:46;100139.25;;;30.91;30.37
75759;BME280;64371;47.566;19.086;2023-09-12T13:26:49;100144.22;;;30.96;30.20
75759;BME280;64371;47.566;19.086;2023-09-12T13:29:53;100133.88;;;30.88;30.27
75759;BME280;64371;47.566;19.086;2023-09-12T13:32:55;100138.03;;;30.96;30.32
75759;BME280;64371;47.566;19.086;2023-09-12T13:35:58;100126.03;;;31.09;30.22
75759;BME280;64371;47.566;19.086;2023-09-12T13:39:01;100127.81;;;30.80;32.08
75759;BME280;64371;47.566;19.086;2023-09-12T13:42:06;100132.63;;;30.53;31.76
75759;BME280;64371;47.566;19.086;2023-09-12T13:45:10;100125.91;;;30.38;35.03
75759;BME280;64371;47.566;19.086;2023-09-12T13:48:13;100127.75;;;30.21;32.51
75759;BME280;64371;47.566;19.086;2023-09-12T13:51:16;100119.31;;;30.39;32.01
75759;BME280;64371;47.566;19.086;2023-09-12T13:54:18;100126.91;;;30.47;33.40
75759;BME280;64371;47.566;19.086;2023-09-12T13:57:20;100120.56;;;30.34;33.63
75759;BME280;64371;47.566;19.086;2023-09-12T14:00:23;100132.38;;;30.24;33.65
75759;BME280;64371;47.566;19.086;2023-09-12T14:03:36;100122.59;;;30.07;33.55
75759;BME280;64371;47.566;19.086;2023-09-12T14:06:39;100125.13;;;29.94;33.69
75759;BME280;64371;47.566;19.086;2023-09-12T14:09:42;100122.38;;;29.98;33.64
75759;BME280;64371;47.566;19.086;2023-09-12T14:12:45;100123.63;;;29.93;33.23
75759;BME280;64371;47.566;19.086;2023-09-12T14:15:48;100118.66;;;29.88;32.92
75759;BME280;64371;47.566;19.086;2023-09-12T14:18:54;100119.22;;;29.76;33.32
75759;BME280;64371;47.566;19.086;2023-09-12T14:21:58;100123.75;;;29.86;32.94
75759;BME280;64371;47.566;19.086;2023-09-12T14:25:01;100121.03;;;29.60;32.82
75759;BME280;64371;47.566;19.086;2023-09-12T14:28:04;100121.66;;;29.44;33.62
75759;BME280;64371;47.566;19.086;2023-09-12T14:31:07;100112.25;;;29.52;33.27
75759;BME280;64371;47.566;19.086;2023-09-12T14:34:17;100119.22;;;29.99;30.33
75759;BME280;64371;47.566;19.086;2023-09-12T14:37:19;100113.44;;;30.40;29.88
75759;BME280;64371;47.566;19.086;2023-09-12T14:40:23;100105.38;;;30.56;30.01
75759;BME280;64371;47.566;19.086;2023-09-12T14:43:26;100111.78;;;30.66;29.55
75759;BME280;64371;47.566;19.086;2023-09-12T14:46:30;100116.44;;;30.65;29.73
75759;BME280;64371;47.566;19.086;2023-09-12T14:49:33;100109.19;;;30.59;30.25
75759;BME280;64371;47.566;19.086;2023-09-12T14:52:49;100112.06;;;30.52;30.33
75759;BME280;64371;47.566;19.086;2023-09-12T14:55:53;100107.84;;;30.47;29.81
75759;BME280;64371;47.566;19.086;2023-09-12T14:58:55;100117.38;;;30.39;30.03
75759;BME280;64371;47.566;19.086;2023-09-12T15:01:58;100114.34;;;30.34;30.71
75759;BME280;64371;47.566;19.086;2023-09-12T15:05:01;100106.88;;;30.38;29.43
75759;BME280;64371;47.566;19.086;2023-09-12T15:08:06;100112.81;;;30.33;29.30
75759;BME280;64371;47.566;19.086;2023-09-12T15:11:09;100114.94;;;30.21;30.80
75759;BME280;64371;47.566;19.086;2023-09-12T15:14:11;100110.97;;;30.26;30.37
75759;BME280;64371;47.566;19.086;2023-09-12T15:17:13;100110.19;;;30.26;29.87
75759;BME280;64371;47.566;19.086;2023-09-12T15:20:16;100114.03;;;30.28;29.78
75759;BME280;64371;47.566;19.086;2023-09-12T15:23:19;100114.25;;;30.17;30.74
75759;BME280;64371;47.566;19.086;2023-09-12T15:26:23;100112.31;;;30.18;30.13
75759;BME280;64371;47.566;19.086;2023-09-12T15:29:26;100121.56;;;30.20;30.58
75759;BME280;64371;47.566;19.086;2023-09-12T15:32:28;100108.09;;;30.13;31.75
75759;BME280;64371;47.566;19.086;2023-09-12T15:35:30;100111.59;;;30.14;30.69
75759;BME280;64371;47.566;19.086;2023-09-12T15:38:33;100105.03;;;30.11;31.66
75759;BME280;64371;47.566;19.086;2023-09-12T15:41:36;100108.03;;;30.17;30.71
75759;BME280;64371;47.566;19.086;2023-09-12T15:44:38;100102.72;;;30.10;30.91
75759;BME280;64371;47.566;19.086;2023-09-12T15:48:01;100100.78;;;30.10;31.23
75759;BME280;64371;47.566;19.086;2023-09-12T15:51:03;100100.16;;;30.03;31.32
75759;BME280;64371;47.566;19.086;2023-09-12T15:54:07;100102.88;;;30.03;31.21
75759;BME280;64371;47.566;19.086;2023-09-12T15:57:10;100097.00;;;30.04;31.19
75759;BME280;64371;47.566;19.086;2023-09-12T16:00:15;100097.22;;;29.94;31.54